Time;durP1;ratioP1;P1;durP2;ratioP2;P2;SDS_P1;SDS_P2;PMS_P1;PMS_P2;Temp;Humidity;BMP_temperature;BMP_pressure;BME280_temperature;BME280_humidity;BME280_pressure;Samples;Min_cycle;Max_cycle;Signal;HPM_P1;HPM_P2
2023/01/30 00:01:29;;;;;;;;;;;;;;;4.08;100.00;101791.19;5067242;28;19916;-58
2023/01/30 00:03:55;;;;;;;;;;;;;;;4.10;100.00;101793.72;5070867;28;19960;-59
2023/01/30 00:06:20;;;;;;;;;;;;;;;4.10;100.00;101797.19;5069044;28;20407;-60
2023/01/30 00:08:45;;;;;;;;;;;;;;;4.11;100.00;101806.75;5062382;28;19925;-59
2023/01/30 00:11:12;;;;;;;;;;;;;;;4.13;100.00;101793.50;5064592;28;19962;-58
2023/01/30 00:13:37;;;;;;;;;;;;;;;4.15;100.00;101775.84;5065055;28;20395;-59
2023/01/30 00:16:03;;;;;;;;;;;;;;;4.14;100.00;101764.47;5072794;28;19916;-58
2023/01/30 00:18:28;;;;;;;;;;;;;;;4.15;100.00;101768.78;5076897;28;19962;-59
2023/01/30 00:20:57;;;;;;;;;;;;;;;4.18;100.00;101788.75;5064322;28;19920;-59
2023/01/30 00:23:23;;;;;;;;;;;;;;;4.17;100.00;101785.28;5058889;28;19916;-57
2023/01/30 00:25:48;;;;;;;;;;;;;;;4.18;100.00;101771.19;5067383;28;19943;-58
2023/01/30 00:28:14;;;;;;;;;;;;;;;4.19;100.00;101787.81;5068106;28;19916;-58
2023/01/30 00:30:39;;;;;;;;;;;;;;;4.19;100.00;101787.81;5060660;28;19923;-59
2023/01/30 00:33:04;;;;;;;;;;;;;;;4.21;100.00;101767.50;5081568;28;19924;-59
2023/01/30 00:35:29;;;;;;;;;;;;;;;4.22;100.00;101761.31;5062106;28;20019;-59
2023/01/30 00:37:55;;;;;;;;;;;;;;;4.23;100.00;101763.00;5076489;28;19935;-59
2023/01/30 00:40:20;;;;;;;;;;;;;;;4.26;100.00;101760.97;5067533;28;19922;-58
2023/01/30 00:48:13;;;;;;;;;;;;;;;4.32;100.00;101757.06;5057859;28;19919;-58
2023/01/30 00:50:41;;;;;;;;;;;;;;;4.33;100.00;101767.47;5062288;28;19921;-58
2023/01/30 00:53:10;;;;;;;;;;;;;;;4.38;100.00;101759.31;5073228;28;19912;-58
2023/01/30 00:55:35;;;;;;;;;;;;;;;4.39;100.00;101755.72;5061265;28;19927;-58
2023/01/30 00:58:00;;;;;;;;;;;;;;;4.40;100.00;101744.25;5065374;28;19999;-59
2023/01/30 01:00:26;;;;;;;;;;;;;;;4.43;100.00;101743.19;5062842;28;20509;-59
2023/01/30 01:02:51;;;;;;;;;;;;;;;4.46;100.00;101742.97;5074904;28;19956;-57
2023/01/30 01:05:16;;;;;;;;;;;;;;;4.50;100.00;101742.63;5070180;28;20022;-58
2023/01/30 01:07:41;;;;;;;;;;;;;;;4.53;100.00;101739.78;5076806;28;19947;-59
2023/01/30 01:10:06;;;;;;;;;;;;;;;4.55;100.00;101726.53;5079096;28;19951;-59
2023/01/30 01:12:32;;;;;;;;;;;;;;;4.57;100.00;101712.31;5067783;28;19921;-58
2023/01/30 01:14:57;;;;;;;;;;;;;;;4.64;100.00;101733.78;5073937;28;19913;-58
2023/01/30 01:17:22;;;;;;;;;;;;;;;4.69;100.00;101729.03;5073179;28;20012;-59
2023/01/30 01:19:47;;;;;;;;;;;;;;;4.70;100.00;101722.81;5078427;28;19955;-58
2023/01/30 01:22:13;;;;;;;;;;;;;;;4.73;100.00;101716.47;5069635;28;19919;-58
2023/01/30 01:24:38;;;;;;;;;;;;;;;4.75;100.00;101725.09;5068237;28;19916;-59
2023/01/30 01:27:03;;;;;;;;;;;;;;;4.78;100.00;101722.25;5061772;28;20394;-59
2023/01/30 01:29:28;;;;;;;;;;;;;;;4.80;100.00;101713.28;5063878;28;19931;-58
2023/01/30 01:31:53;;;;;;;;;;;;;;;4.84;100.00;101706.84;5055615;28;19920;-58
2023/01/30 01:34:18;;;;;;;;;;;;;;;4.88;100.00;101717.97;5062345;28;20466;-58
2023/01/30 01:36:47;;;;;;;;;;;;;;;4.92;100.00;101719.47;5069782;28;19939;-59
2023/01/30 01:39:12;;;;;;;;;;;;;;;4.97;100.00;101709.44;5067094;28;19927;-59
2023/01/30 01:41:37;;;;;;;;;;;;;;;4.96;100.00;101698.06;5066612;28;19912;-60
2023/01/30 01:44:10;;;;;;;;;;;;;;;4.99;100.00;101694.34;5067790;28;19919;-58
2023/01/30 01:46:37;;;;;;;;;;;;;;;5.00;100.00;101680.25;5063338;28;20473;-58
2023/01/30 01:49:06;;;;;;;;;;;;;;;5.02;100.00;101672.22;5055806;28;20082;-58
2023/01/30 01:51:33;;;;;;;;;;;;;;;5.02;100.00;101672.22;5061999;28;19920;-58
2023/01/30 01:54:02;;;;;;;;;;;;;;;5.02;100.00;101670.44;5067490;28;19960;-59
2023/01/30 01:56:29;;;;;;;;;;;;;;;5.05;100.00;101672.84;5067240;28;19916;-59
2023/01/30 01:58:56;;;;;;;;;;;;;;;5.08;100.00;101661.25;5064094;28;19932;-59
2023/01/30 02:01:22;;;;;;;;;;;;;;;5.12;100.00;101673.22;5072792;28;20399;-59
2023/01/30 02:03:50;;;;;;;;;;;;;;;5.13;100.00;101669.63;5071811;28;19916;-58
2023/01/30 02:06:16;;;;;;;;;;;;;;;5.13;100.00;101665.19;5072461;28;19924;-58
2023/01/30 02:08:44;;;;;;;;;;;;;;;5.14;100.00;101669.50;5067960;28;19923;-59
2023/01/30 02:11:13;;;;;;;;;;;;;;;5.14;100.00;101651.09;5056747;28;19924;-60
2023/01/30 02:13:38;;;;;;;;;;;;;;;5.15;100.00;101647.50;5067489;28;19916;-59
2023/01/30 02:16:05;;;;;;;;;;;;;;;5.19;100.00;101654.19;5065403;28;19924;-58
2023/01/30 02:18:31;;;;;;;;;;;;;;;5.22;100.00;101643.47;5071215;28;19912;-59
2023/01/30 02:21:06;;;;;;;;;;;;;;;5.28;100.00;101629.00;5078317;28;19919;-58
2023/01/30 02:23:34;;;;;;;;;;;;;;;5.31;100.00;101625.28;5067608;28;19932;-59
2023/01/30 02:26:20;;;;;;;;;;;;;;;5.34;100.00;101628.50;5068416;28;19954;-59
2023/01/30 02:29:04;;;;;;;;;;;;;;;5.40;100.00;101635.09;5078786;28;19925;-59
2023/01/30 02:31:52;;;;;;;;;;;;;;;5.41;100.00;101631.50;5066908;28;20375;-58
2023/01/30 02:34:32;;;;;;;;;;;;;;;5.45;100.00;101648.75;5067805;28;19923;-59
2023/01/30 02:37:10;;;;;;;;;;;;;;;5.51;100.00;101650.94;5084385;28;19977;-59
2023/01/30 02:39:46;;;;;;;;;;;;;;;5.56;100.00;101636.44;5063613;28;19920;-59
2023/01/30 02:42:11;;;;;;;;;;;;;;;5.59;100.00;101622.19;5060576;28;19966;-57
2023/01/30 02:44:55;;;;;;;;;;;;;;;5.64;100.00;101637.66;5068772;28;19956;-58
2023/01/30 02:47:32;;;;;;;;;;;;;;;5.73;100.00;101616.69;5080861;28;20007;-60
2023/01/30 02:50:01;;;;;;;;;;;;;;;5.78;100.00;101619.81;5071670;28;19984;-59
2023/01/30 02:52:28;;;;;;;;;;;;;;;5.89;100.00;101621.59;5072560;28;20296;-60
2023/01/30 02:54:53;;;;;;;;;;;;;;;5.84;100.00;101614.06;5067675;28;20005;-60
2023/01/30 02:57:19;;;;;;;;;;;;;;;5.81;100.00;101613.47;5077230;28;19943;-59
2023/01/30 02:59:47;;;;;;;;;;;;;;;5.76;100.00;101610.31;5065931;28;20391;-59
2023/01/30 03:02:12;;;;;;;;;;;;;;;5.72;100.00;101603.63;5073636;28;19922;-60
2023/01/30 03:04:55;;;;;;;;;;;;;;;5.69;100.00;101615.25;5079600;28;20006;-60
2023/01/30 03:07:35;;;;;;;;;;;;;;;5.63;100.00;101599.91;5079378;28;20479;-60
2023/01/30 03:10:05;;;;;;;;;;;;;;;5.58;100.00;101597.66;5067295;28;19952;-60
2023/01/30 03:12:33;;;;;;;;;;;;;;;5.56;100.00;101596.94;5062068;28;19923;-60
2023/01/30 03:15:10;;;;;;;;;;;;;;;5.56;100.00;101598.72;5062549;28;19924;-60
2023/01/30 03:17:36;;;;;;;;;;;;;;;5.53;100.00;101593.69;5075762;28;19920;-59
2023/01/30 03:20:02;;;;;;;;;;;;;;;5.51;100.00;101590.34;5071374;28;19916;-60
2023/01/30 03:22:27;;;;;;;;;;;;;;;5.51;100.00;101585.09;5065842;28;19916;-61
2023/01/30 03:24:53;;;;;;;;;;;;;;;5.53;100.00;101596.34;5081031;28;19938;-61
2023/01/30 03:27:18;;;;;;;;;;;;;;;5.59;100.00;101593.22;5065722;28;19916;-61
2023/01/30 03:29:44;;;;;;;;;;;;;;;5.54;100.00;101590.09;5069670;28;19931;-61
2023/01/30 03:32:09;;;;;;;;;;;;;;;5.52;100.00;101587.59;5062385;28;19922;-60
2023/01/30 03:34:34;;;;;;;;;;;;;;;5.54;100.00;101587.47;5074764;28;19931;-61
2023/01/30 03:36:59;;;;;;;;;;;;;;;5.59;100.00;101580.03;5073288;28;20387;-61
2023/01/30 03:39:25;;;;;;;;;;;;;;;5.56;100.00;101578.50;5065590;28;19920;-61
2023/01/30 03:41:51;;;;;;;;;;;;;;;5.59;100.00;101566.88;5065183;28;19933;-61
2023/01/30 03:44:16;;;;;;;;;;;;;;;5.60;100.00;101579.09;5066490;28;20367;-62
2023/01/30 03:46:41;;;;;;;;;;;;;;;5.59;100.00;101582.69;5064123;28;19932;-61
2023/01/30 03:49:06;;;;;;;;;;;;;;;5.57;100.00;101579.31;5061415;28;19973;-61
2023/01/30 03:51:31;;;;;;;;;;;;;;;5.57;100.00;101579.31;5072389;28;19913;-61
2023/01/30 03:53:56;;;;;;;;;;;;;;;5.55;100.00;101582.09;5071854;28;19952;-61
2023/01/30 03:56:21;;;;;;;;;;;;;;;5.59;100.00;101598.50;5067693;28;20441;-61
2023/01/30 03:58:47;;;;;;;;;;;;;;;5.61;100.00;101583.41;5069617;28;19916;-61
2023/01/30 04:01:12;;;;;;;;;;;;;;;5.60;100.00;101587.00;5074564;28;20468;-61
2023/01/30 04:03:37;;;;;;;;;;;;;;;5.66;100.00;101575.97;5069426;28;19916;-61
2023/01/30 04:06:02;;;;;;;;;;;;;;;5.63;100.00;101584.13;5060507;28;20356;-61
2023/01/30 04:08:27;;;;;;;;;;;;;;;5.67;100.00;101589.97;5068838;28;19916;-61
2023/01/30 04:10:52;;;;;;;;;;;;;;;5.72;100.00;101583.38;5063240;28;19913;-60
2023/01/30 04:13:18;;;;;;;;;;;;;;;5.72;100.00;101566.72;5056065;28;19924;-61
2023/01/30 04:15:43;;;;;;;;;;;;;;;5.71;100.00;101579.06;5073740;28;19917;-60
2023/01/30 04:18:08;;;;;;;;;;;;;;;5.71;100.00;101573.78;5075805;28;20372;-61
2023/01/30 04:20:33;;;;;;;;;;;;;;;5.76;100.00;101573.44;5057791;28;19943;-60
2023/01/30 04:22:59;;;;;;;;;;;;;;;5.73;100.00;101566.59;5058674;28;19913;-60
2023/01/30 04:25:24;;;;;;;;;;;;;;;5.78;100.00;101566.22;5061717;28;19917;-60
2023/01/30 04:27:49;;;;;;;;;;;;;;;5.83;100.00;101572.84;5066192;28;20035;-61
2023/01/30 04:30:14;;;;;;;;;;;;;;;5.78;100.00;101560.97;5056186;28;19924;-60
2023/01/30 04:32:40;;;;;;;;;;;;;;;5.77;100.00;101565.41;5077408;28;20441;-60
2023/01/30 04:35:05;;;;;;;;;;;;;;;5.78;100.00;101564.47;5073986;28;20578;-60
2023/01/30 04:37:30;;;;;;;;;;;;;;;5.84;100.00;101561.34;5077018;28;19999;-60
2023/01/30 04:39:55;;;;;;;;;;;;;;;5.84;100.00;101566.59;5064898;28;19970;-60
2023/01/30 04:42:20;;;;;;;;;;;;;;;5.79;100.00;101574.06;5067362;28;19943;-60
2023/01/30 04:44:46;;;;;;;;;;;;;;;5.89;100.00;101568.88;5060912;28;20000;-60
2023/01/30 04:47:11;;;;;;;;;;;;;;;5.91;100.00;101559.06;5074047;28;20433;-60
2023/01/30 04:49:36;;;;;;;;;;;;;;;5.88;100.00;101570.69;5060484;28;19952;-61
2023/01/30 04:52:01;;;;;;;;;;;;;;;5.90;100.00;101560.88;5071156;28;20284;-60
2023/01/30 04:54:26;;;;;;;;;;;;;;;5.88;100.00;101575.09;5054965;28;19913;-60
2023/01/30 04:56:51;;;;;;;;;;;;;;;5.97;100.00;101565.66;5071905;28;19958;-61
2023/01/30 04:59:17;;;;;;;;;;;;;;;5.98;100.00;101572.59;5070080;28;20024;-60
2023/01/30 05:01:42;;;;;;;;;;;;;;;5.98;100.00;101567.31;5059086;28;19916;-60
2023/01/30 05:04:07;;;;;;;;;;;;;;;6.03;100.00;101586.25;5071180;28;19959;-60
2023/01/30 05:06:33;;;;;;;;;;;;;;;6.00;100.00;101565.41;5078068;28;20337;-60
2023/01/30 05:08:58;;;;;;;;;;;;;;;6.06;100.00;101580.72;5065831;28;19981;-60
2023/01/30 05:11:25;;;;;;;;;;;;;;;6.08;100.00;101576.19;5054584;28;19913;-60
2023/01/30 05:13:50;;;;;;;;;;;;;;;6.08;100.00;101565.66;5061854;28;20430;-59
2023/01/30 05:16:16;;;;;;;;;;;;;;;6.11;100.00;101571.50;5062151;28;20406;-59
2023/01/30 05:18:42;;;;;;;;;;;;;;;6.03;100.00;101568.63;5062838;28;19912;-60
2023/01/30 05:21:11;;;;;;;;;;;;;;;6.03;100.00;101565.16;5073672;28;20578;-60
2023/01/30 05:23:36;;;;;;;;;;;;;;;6.01;100.00;101564.44;5069177;28;20394;-60
2023/01/30 05:26:02;;;;;;;;;;;;;;;6.03;100.00;101573.06;5079422;28;19913;-61
2023/01/30 05:28:28;;;;;;;;;;;;;;;5.98;100.00;101573.44;5080744;28;19932;-60
2023/01/30 05:30:53;;;;;;;;;;;;;;;6.00;100.00;101563.59;5073489;28;20011;-60
2023/01/30 05:33:18;;;;;;;;;;;;;;;5.95;100.00;101578.97;5079811;28;19924;-60
2023/01/30 05:35:47;;;;;;;;;;;;;;;5.92;100.00;101573.09;5071112;28;19940;-60
2023/01/30 05:38:12;;;;;;;;;;;;;;;5.98;100.00;101565.53;5079155;28;19917;-60
2023/01/30 05:40:37;;;;;;;;;;;;;;;5.94;100.00;101558.84;5078752;28;20537;-60
2023/01/30 05:43:03;;;;;;;;;;;;;;;5.97;100.00;101569.13;5072737;28;20015;-59
2023/01/30 05:45:28;;;;;;;;;;;;;;;5.99;100.00;101563.72;5071168;28;19982;-59
2023/01/30 05:47:53;;;;;;;;;;;;;;;6.01;100.00;101573.19;5079053;28;19956;-60
2023/01/30 05:50:18;;;;;;;;;;;;;;;6.05;100.00;101568.50;5067937;28;19939;-58
2023/01/30 05:52:43;;;;;;;;;;;;;;;6.13;100.00;101569.59;5074192;28;20383;-59
2023/01/30 05:55:09;;;;;;;;;;;;;;;6.15;100.00;101570.28;5071210;28;19920;-60
2023/01/30 05:57:34;;;;;;;;;;;;;;;6.16;100.00;101584.31;5068116;28;19927;-59
2023/01/30 05:59:59;;;;;;;;;;;;;;;6.16;100.00;101590.44;5069785;28;19912;-59
2023/01/30 06:02:24;;;;;;;;;;;;;;;6.22;100.00;101589.09;5070167;28;19917;-59
2023/01/30 06:04:49;;;;;;;;;;;;;;;6.23;100.00;101588.13;5070272;28;19927;-59
2023/01/30 06:07:14;;;;;;;;;;;;;;;6.29;100.00;101589.44;5070220;28;19999;-59
2023/01/30 06:09:40;;;;;;;;;;;;;;;6.28;100.00;101593.84;5067726;28;19917;-59
2023/01/30 06:12:05;;;;;;;;;;;;;;;6.30;100.00;101601.66;5073048;28;19920;-59
2023/01/30 06:14:30;;;;;;;;;;;;;;;6.31;100.00;101609.44;5071748;28;19913;-60
2023/01/30 06:16:55;;;;;;;;;;;;;;;6.27;100.00;101620.38;5066147;28;20292;-60
2023/01/30 06:19:21;;;;;;;;;;;;;;;6.27;100.00;101618.56;5069581;28;19927;-60
2023/01/30 06:21:46;;;;;;;;;;;;;;;6.27;100.00;101631.75;5073777;28;19919;-61
2023/01/30 06:24:11;;;;;;;;;;;;;;;6.26;100.00;101608.97;5064302;28;20277;-60
2023/01/30 06:26:36;;;;;;;;;;;;;;;6.22;100.00;101618.94;5069226;28;19924;-60
2023/01/30 06:29:01;;;;;;;;;;;;;;;6.22;100.00;101632.13;5064678;28;19927;-59
2023/01/30 06:31:26;;;;;;;;;;;;;;;6.19;100.00;101629.72;5070861;28;20375;-60
2023/01/30 06:33:52;;;;;;;;;;;;;;;6.20;100.00;101625.31;5076976;28;19924;-59
2023/01/30 06:36:17;;;;;;;;;;;;;;;6.17;100.00;101622.91;5064601;28;20342;-60
2023/01/30 06:38:42;;;;;;;;;;;;;;;6.17;100.00;101630.81;5059491;28;20388;-59
2023/01/30 06:41:07;;;;;;;;;;;;;;;6.12;100.00;101630.34;5070673;28;20011;-59
2023/01/30 06:43:32;;;;;;;;;;;;;;;6.11;100.00;101639.22;5068623;28;19920;-60
2023/01/30 06:45:58;;;;;;;;;;;;;;;6.05;100.00;101637.88;5075600;28;19963;-60
2023/01/30 06:48:23;;;;;;;;;;;;;;;6.08;100.00;101632.41;5059703;28;19920;-59
2023/01/30 06:50:48;;;;;;;;;;;;;;;6.05;100.00;101635.25;5077799;28;19958;-60
2023/01/30 06:53:13;;;;;;;;;;;;;;;5.99;100.00;101629.63;5078927;28;19917;-58
2023/01/30 06:55:39;;;;;;;;;;;;;;;5.92;100.00;101610.84;5071200;28;20046;-60
2023/01/30 06:58:11;;;;;;;;;;;;;;;5.90;100.00;101618.03;5070472;28;19935;-59
2023/01/30 07:00:38;;;;;;;;;;;;;;;5.82;100.00;101610.69;5068061;28;19963;-60
2023/01/30 07:03:03;;;;;;;;;;;;;;;5.83;100.00;101622.09;5070969;28;19990;-59
2023/01/30 07:05:29;;;;;;;;;;;;;;;5.77;100.00;101617.28;5072642;28;19916;-59
2023/01/30 07:07:54;;;;;;;;;;;;;;;5.75;100.00;101622.66;5062817;28;19921;-59
2023/01/30 07:10:19;;;;;;;;;;;;;;;5.69;100.00;101631.06;5061150;28;19939;-59
2023/01/30 07:12:45;;;;;;;;;;;;;;;5.53;100.00;101633.22;5070087;28;20319;-59
2023/01/30 07:15:10;;;;;;;;;;;;;;;5.56;100.00;101647.00;5074987;28;19923;-58
2023/01/30 07:17:36;;;;;;;;;;;;;;;5.51;100.00;101653.56;5085056;28;19980;-60
2023/01/30 07:20:01;;;;;;;;;;;;;;;5.46;100.00;101648.63;5059858;28;19951;-59
2023/01/30 07:22:26;;;;;;;;;;;;;;;5.41;100.00;101639.41;5062666;28;20011;-60
2023/01/30 07:24:51;;;;;;;;;;;;;;;5.42;99.77;101643.72;5069288;28;19919;-60
2023/01/30 07:27:16;;;;;;;;;;;;;;;5.39;99.86;101649.22;5064041;28;20505;-58
2023/01/30 07:29:41;;;;;;;;;;;;;;;5.35;99.60;101667.06;5059896;28;19921;-59
2023/01/30 07:32:12;;;;;;;;;;;;;;;5.32;99.71;101651.50;5076590;28;19923;-59
2023/01/30 07:34:38;;;;;;;;;;;;;;;5.29;99.40;101657.00;5067688;28;20020;-59
2023/01/30 07:37:03;;;;;;;;;;;;;;;5.25;99.36;101664.28;5071314;28;20003;-60
2023/01/30 07:39:29;;;;;;;;;;;;;;;5.26;99.52;101676.50;5061069;28;20003;-59
2023/01/30 07:41:54;;;;;;;;;;;;;;;5.29;99.67;101676.28;5069071;28;19919;-57
2023/01/30 07:44:19;;;;;;;;;;;;;;;5.26;99.29;101659.88;5064283;28;19912;-59
2023/01/30 07:46:44;;;;;;;;;;;;;;;5.25;98.97;101672.19;5063496;28;19979;-59
2023/01/30 07:49:09;;;;;;;;;;;;;;;5.19;99.12;101662.09;5062433;28;20405;-58
2023/01/30 07:51:34;;;;;;;;;;;;;;;5.21;99.13;101680.44;5077567;28;19912;-58
2023/01/30 07:54:00;;;;;;;;;;;;;;;5.18;99.12;101670.13;5078013;28;19923;-59
2023/01/30 07:56:26;;;;;;;;;;;;;;;5.13;98.86;101681.00;5059301;28;19947;-58
2023/01/30 07:58:53;;;;;;;;;;;;;;;5.13;98.59;101688.91;5075604;28;19919;-58
2023/01/30 08:01:18;;;;;;;;;;;;;;;5.13;98.40;101690.69;5059031;28;20288;-60
2023/01/30 08:03:45;;;;;;;;;;;;;;;5.17;98.22;101678.97;5064474;28;19924;-59
2023/01/30 08:06:11;;;;;;;;;;;;;;;5.17;98.29;101689.50;5071290;28;19920;-59
2023/01/30 08:08:36;;;;;;;;;;;;;;;5.21;97.94;101688.34;5066296;28;19973;-59
2023/01/30 08:11:01;;;;;;;;;;;;;;;5.25;97.99;101689.78;5059838;28;20448;-58
2023/01/30 08:13:26;;;;;;;;;;;;;;;5.27;97.63;101693.97;5067182;28;19995;-58
2023/01/30 08:15:52;;;;;;;;;;;;;;;5.26;97.51;101699.38;5070628;28;19920;-58
2023/01/30 08:18:17;;;;;;;;;;;;;;;5.28;97.53;101697.47;5067759;28;19920;-59
2023/01/30 08:20:43;;;;;;;;;;;;;;;5.37;97.05;101701.19;5063635;28;20387;-59
2023/01/30 08:23:08;;;;;;;;;;;;;;;5.33;96.84;101707.63;5061538;28;20338;-58
2023/01/30 08:25:34;;;;;;;;;;;;;;;5.45;96.24;101701.44;5066908;28;19917;-58
2023/01/30 08:28:00;;;;;;;;;;;;;;;5.46;95.76;101705.75;5060539;28;19958;-58
2023/01/30 08:30:25;;;;;;;;;;;;;;;5.51;95.15;101712.38;5061597;28;19947;-60
2023/01/30 08:32:51;;;;;;;;;;;;;;;5.53;94.69;101709.63;5080624;28;19920;-60
2023/01/30 08:35:16;;;;;;;;;;;;;;;5.64;94.06;101704.34;5070675;28;19931;-58
2023/01/30 08:37:41;;;;;;;;;;;;;;;5.65;93.65;101713.09;5067020;28;20387;-59
2023/01/30 08:40:07;;;;;;;;;;;;;;;5.65;93.49;101715.72;5061484;28;20319;-59
2023/01/30 08:42:32;;;;;;;;;;;;;;;5.67;93.41;101725.19;5067931;28;19920;-58
2023/01/30 08:44:57;;;;;;;;;;;;;;;5.74;93.38;101718.50;5071046;28;19932;-60
2023/01/30 08:47:23;;;;;;;;;;;;;;;5.73;92.57;101719.44;5073722;28;20380;-59
2023/01/30 08:49:50;;;;;;;;;;;;;;;5.73;92.21;101721.25;5066278;28;19924;-58
2023/01/30 08:52:15;;;;;;;;;;;;;;;5.83;91.71;101722.25;5074046;28;20492;-59
2023/01/30 08:54:40;;;;;;;;;;;;;;;5.84;91.24;101722.13;5066788;28;19966;-59
2023/01/30 08:57:05;;;;;;;;;;;;;;;5.88;90.72;101720.94;5077693;28;20002;-59
2023/01/30 08:59:30;;;;;;;;;;;;;;;5.97;90.48;101723.84;5065541;28;19940;-59
2023/01/30 09:01:56;;;;;;;;;;;;;;;5.95;90.44;101741.56;5066078;28;19920;-60
2023/01/30 09:04:23;;;;;;;;;;;;;;;5.97;90.69;101744.91;5077953;28;19922;-58
2023/01/30 09:06:48;;;;;;;;;;;;;;;5.99;90.21;101743.00;5065092;28;20397;-59
2023/01/30 09:09:14;;;;;;;;;;;;;;;6.03;89.55;101744.44;5066288;28;19920;-59
2023/01/30 09:11:39;;;;;;;;;;;;;;;6.03;89.72;101749.72;5070600;28;19923;-59
2023/01/30 09:14:04;;;;;;;;;;;;;;;6.13;88.89;101761.25;5069336;28;19912;-58
2023/01/30 09:16:29;;;;;;;;;;;;;;;6.11;89.08;101753.47;5074362;28;20002;-58
2023/01/30 09:18:55;;;;;;;;;;;;;;;6.17;89.42;101754.78;5079724;28;20402;-59
2023/01/30 09:21:20;;;;;;;;;;;;;;;6.19;88.79;101748.41;5062382;28;19942;-59
2023/01/30 09:23:46;;;;;;;;;;;;;;;6.29;88.71;101771.44;5063682;28;20577;-57
2023/01/30 09:26:11;;;;;;;;;;;;;;;6.30;88.47;101771.31;5067120;28;20389;-59
2023/01/30 09:28:36;;;;;;;;;;;;;;;6.37;88.17;101771.69;5060789;28;19913;-58
2023/01/30 09:31:01;;;;;;;;;;;;;;;6.39;87.92;101770.59;5076492;28;19962;-59
2023/01/30 09:33:26;;;;;;;;;;;;;;;6.49;87.79;101771.53;5068994;28;19912;-60
2023/01/30 09:35:52;;;;;;;;;;;;;;;6.52;87.28;101775.75;5066013;28;19920;-60
2023/01/30 09:38:17;;;;;;;;;;;;;;;6.58;86.77;101783.16;5072419;28;19927;-60
2023/01/30 09:40:51;;;;;;;;;;;;;;;6.63;86.59;101775.72;5065852;28;19912;-59
2023/01/30 09:43:22;;;;;;;;;;;;;;;6.70;86.11;101776.09;5064964;28;19921;-58
2023/01/30 09:46:07;;;;;;;;;;;;;;;6.72;86.54;101772.38;5063639;28;19913;-58
2023/01/30 09:48:37;;;;;;;;;;;;;;;6.77;86.03;101779.91;5075600;28;19912;-59
2023/01/30 09:51:05;;;;;;;;;;;;;;;6.79;86.14;101783.28;5076880;28;19965;-60
2023/01/30 09:53:33;;;;;;;;;;;;;;;6.80;85.35;101787.59;5060694;28;19917;-59
2023/01/30 09:55:59;;;;;;;;;;;;;;;6.89;85.41;101792.13;5078020;28;19923;-59
2023/01/30 09:58:26;;;;;;;;;;;;;;;6.92;84.80;101801.59;5063510;28;19920;-60
2023/01/30 10:00:53;;;;;;;;;;;;;;;6.92;84.91;101801.59;5061932;28;19928;-58
2023/01/30 10:03:27;;;;;;;;;;;;;;;6.92;83.98;101791.88;5063524;28;19923;-58
2023/01/30 10:05:57;;;;;;;;;;;;;;;6.92;83.21;101801.59;5064645;28;19927;-58
2023/01/30 10:08:37;;;;;;;;;;;;;;;6.95;83.00;101801.38;5054823;28;19951;-60
2023/01/30 10:11:03;;;;;;;;;;;;;;;7.00;82.27;101809.75;5058233;28;19969;-59
2023/01/30 10:13:34;;;;;;;;;;;;;;;6.94;81.51;101811.09;5064549;28;20003;-59
2023/01/30 10:16:02;;;;;;;;;;;;;;;6.95;82.04;101823.34;5079728;28;20319;-59
2023/01/30 10:18:27;;;;;;;;;;;;;;;6.99;81.50;101818.66;5066830;28;19927;-59
2023/01/30 10:21:07;;;;;;;;;;;;;;;7.01;80.89;101812.28;5079605;28;19913;-59
2023/01/30 10:23:38;;;;;;;;;;;;;;;6.97;80.82;101810.84;5066099;28;19927;-58
2023/01/30 10:26:06;;;;;;;;;;;;;;;6.98;80.58;101815.16;5064488;28;19919;-59
2023/01/30 10:28:34;;;;;;;;;;;;;;;6.97;80.67;101815.28;5072213;28;20399;-58
2023/01/30 10:31:14;;;;;;;;;;;;;;;7.01;80.19;101837.84;5070368;28;20022;-60
2023/01/30 10:33:54;;;;;;;;;;;;;;;7.02;79.64;101837.72;5067309;28;19974;-59
2023/01/30 10:36:26;;;;;;;;;;;;;;;7.03;79.88;101828.84;5069842;28;19913;-60
2023/01/30 10:38:53;;;;;;;;;;;;;;;7.11;79.14;101844.91;5081026;28;19920;-59
2023/01/30 10:41:38;;;;;;;;;;;;;;;7.03;79.38;101847.31;5062011;28;20446;-59
2023/01/30 10:44:12;;;;;;;;;;;;;;;7.02;78.87;101844.81;5066537;28;20003;-58
2023/01/30 10:46:53;;;;;;;;;;;;;;;6.99;79.35;101839.78;5072070;28;19919;-60
2023/01/30 10:49:21;;;;;;;;;;;;;;;6.99;79.52;101842.41;5070898;28;20490;-59
2023/01/30 10:52:02;;;;;;;;;;;;;;;7.05;78.67;101845.41;5067935;28;19939;-59
2023/01/30 10:54:39;;;;;;;;;;;;;;;7.01;78.44;101841.31;5068875;28;19924;-59
2023/01/30 10:57:19;;;;;;;;;;;;;;;7.04;78.94;101843.72;5070937;28;19916;-59
2023/01/30 10:59:47;;;;;;;;;;;;;;;7.01;78.77;101828.13;5063587;28;19919;-59
2023/01/30 11:02:34;;;;;;;;;;;;;;;7.00;78.56;101839.66;5069728;28;19912;-60
2023/01/30 11:05:03;;;;;;;;;;;;;;;7.11;78.57;101852.81;5070063;28;20006;-59
2023/01/30 11:07:32;;;;;;;;;;;;;;;7.07;78.21;101854.03;5063346;28;19912;-60
2023/01/30 11:09:57;;;;;;;;;;;;;;;7.09;77.68;101846.81;5075856;28;19927;-60
2023/01/30 11:12:23;;;;;;;;;;;;;;;7.11;77.48;101834.31;5072356;28;19938;-59
2023/01/30 11:14:49;;;;;;;;;;;;;;;7.15;77.66;101837.56;5072802;28;19913;-59
2023/01/30 11:17:16;;;;;;;;;;;;;;;7.18;77.44;101839.09;5068863;28;19939;-58
2023/01/30 11:19:41;;;;;;;;;;;;;;;7.22;77.18;101844.00;5069025;28;19923;-58
2023/01/30 11:22:10;;;;;;;;;;;;;;;7.33;77.60;101836.06;5072834;28;19917;-60
2023/01/30 11:24:40;;;;;;;;;;;;;;;7.40;76.99;101836.41;5078384;28;19912;-59
2023/01/30 11:27:16;;;;;;;;;;;;;;;7.40;77.06;101841.69;5077785;28;19965;-59
2023/01/30 11:29:41;;;;;;;;;;;;;;;7.39;76.82;101848.78;5069290;28;20048;-59
2023/01/30 11:32:23;;;;;;;;;;;;;;;7.34;76.31;101840.41;5073121;28;20372;-59
2023/01/30 11:35:01;;;;;;;;;;;;;;;7.42;76.83;101837.13;5080396;28;20007;-58
2023/01/30 11:37:31;;;;;;;;;;;;;;;7.41;76.24;101848.66;5075433;28;19922;-59
2023/01/30 11:39:56;;;;;;;;;;;;;;;7.30;76.28;101848.69;5067296;28;19920;-60
2023/01/30 11:42:24;;;;;;;;;;;;;;;7.33;76.22;101853.72;5069976;28;19920;-58
2023/01/30 11:44:54;;;;;;;;;;;;;;;7.32;76.45;101862.63;5069020;28;19916;-59
2023/01/30 11:47:24;;;;;;;;;;;;;;;7.34;76.55;101865.97;5063285;28;20335;-59
2023/01/30 11:49:53;;;;;;;;;;;;;;;7.35;76.40;101867.66;5062255;28;19966;-58
2023/01/30 11:52:19;;;;;;;;;;;;;;;7.35;76.45;101850.00;5073800;28;19913;-59
2023/01/30 11:54:44;;;;;;;;;;;;;;;7.43;76.20;101865.22;5061453;28;20295;-59
2023/01/30 11:57:12;;;;;;;;;;;;;;;7.54;75.92;101853.78;5079534;28;19913;-59
2023/01/30 11:59:43;;;;;;;;;;;;;;;7.57;75.65;101850.91;5063549;28;20015;-59
2023/01/30 12:02:18;;;;;;;;;;;;;;;7.60;76.09;101858.56;5081854;28;20493;-59
2023/01/30 12:04:51;;;;;;;;;;;;;;;7.62;75.90;101851.34;5069885;28;19917;-59
2023/01/30 12:07:20;;;;;;;;;;;;;;;7.55;75.55;101845.75;5062350;28;20023;-60
2023/01/30 12:09:45;;;;;;;;;;;;;;;7.58;75.64;101853.41;5068983;28;19917;-59
2023/01/30 12:12:27;;;;;;;;;;;;;;;7.62;75.38;101852.19;5067189;28;20066;-59
2023/01/30 12:14:53;;;;;;;;;;;;;;;7.60;75.07;101848.84;5069085;28;19966;-59
2023/01/30 12:17:22;;;;;;;;;;;;;;;7.54;74.66;101853.78;5071872;28;19916;-59
2023/01/30 12:20:04;;;;;;;;;;;;;;;7.50;74.93;101853.19;5070514;28;19913;-58
2023/01/30 12:22:56;;;;;;;;;;;;;;;7.53;74.69;101844.19;5060523;28;20379;-60
2023/01/30 12:25:24;;;;;;;;;;;;;;;7.62;74.52;101841.63;5027975;28;19956;-59
2023/01/30 12:28:00;;;;;;;;;;;;;;;7.72;74.73;101849.63;5074667;28;19958;-59
2023/01/30 12:30:31;;;;;;;;;;;;;;;7.90;74.97;101857.84;5056448;28;20003;-59
2023/01/30 12:33:01;;;;;;;;;;;;;;;8.00;74.50;101862.22;5079200;28;20276;-60
2023/01/30 12:35:49;;;;;;;;;;;;;;;8.12;73.74;101857.72;5082208;28;19916;-58
2023/01/30 12:38:33;;;;;;;;;;;;;;;8.17;73.71;101857.31;5054115;28;19917;-58
2023/01/30 12:41:11;;;;;;;;;;;;;;;8.33;72.86;101876.19;5066435;28;19919;-60
2023/01/30 12:44:14;;;;;;;;;;;;;;;8.36;72.93;101866.22;5065927;28;19917;-59
2023/01/30 12:46:58;;;;;;;;;;;;;;;8.29;72.05;101870.34;4976832;28;19937;-59
2023/01/30 12:49:33;;;;;;;;;;;;;;;8.16;72.22;101875.00;4986663;28;20394;-59